Time;durP1;ratioP1;P1;durP2;ratioP2;P2;SDS_P1;SDS_P2;PMS_P1;PMS_P2;Temp;Humidity;BMP_temperature;BMP_pressure;BME280_temperature;BME280_humidity;BME280_pressure;Samples;Min_cycle;Max_cycle;Signal;HPM_P1;HPM_P2
2023/06/28 00:01:00;;;;;;;6.82;3.40;;;15.60;99.90;;;;;;5051548;28;20105;-70
2023/06/28 00:03:27;;;;;;;7.22;3.45;;;15.60;99.90;;;;;;5052969;28;20044;-70
2023/06/28 00:05:53;;;;;;;9.23;3.45;;;15.60;99.90;;;;;;5053093;28;20049;-70
2023/06/28 00:08:18;;;;;;;7.38;3.42;;;15.60;99.90;;;;;;5051778;28;20127;-71
2023/06/28 00:10:45;;;;;;;8.95;3.42;;;15.60;99.90;;;;;;5054820;28;21696;-71
2023/06/28 00:13:10;;;;;;;8.57;3.47;;;15.60;99.90;;;;;;5046821;28;20090;-72
2023/06/28 00:15:36;;;;;;;8.70;3.47;;;15.60;99.90;;;;;;5035535;28;20052;-69
2023/06/28 00:18:02;;;;;;;8.20;3.35;;;15.60;99.90;;;;;;5052848;28;20547;-70
2023/06/28 00:20:29;;;;;;;7.25;3.67;;;15.60;99.90;;;;;;5049750;28;20055;-71
2023/06/28 00:22:55;;;;;;;6.00;3.30;;;15.60;99.90;;;;;;5033101;28;20466;-71
2023/06/28 00:25:21;;;;;;;9.45;3.67;;;15.60;99.90;;;;;;5026440;28;20040;-69
2023/06/28 00:27:46;;;;;;;6.03;3.30;;;15.60;99.90;;;;;;5047352;28;20091;-70
2023/06/28 00:30:13;;;;;;;6.47;3.15;;;15.60;99.90;;;;;;5034603;28;20052;-70
2023/06/28 00:32:39;;;;;;;6.65;3.70;;;15.50;99.90;;;;;;5046491;28;20037;-70
2023/06/28 00:35:05;;;;;;;7.65;3.35;;;15.50;99.90;;;;;;5048218;28;20067;-70
2023/06/28 00:37:32;;;;;;;8.05;4.03;;;15.50;99.90;;;;;;5032950;28;20055;-69
2023/06/28 00:39:58;;;;;;;8.93;3.65;;;15.40;99.90;;;;;;5051825;28;20055;-70
2023/06/28 00:42:23;;;;;;;7.45;3.70;;;15.40;99.90;;;;;;5052278;28;20052;-69
2023/06/28 00:44:49;;;;;;;8.88;3.72;;;15.40;99.90;;;;;;5055590;28;20533;-72
2023/06/28 00:47:15;;;;;;;8.02;3.85;;;15.40;99.90;;;;;;5029458;28;20048;-71
2023/06/28 00:49:42;;;;;;;7.22;3.83;;;15.40;99.90;;;;;;5026137;28;20684;-70
2023/06/28 00:52:11;;;;;;;8.95;4.13;;;15.40;99.90;;;;;;5053862;28;20467;-70
2023/06/28 00:54:37;;;;;;;6.65;3.28;;;15.40;99.90;;;;;;5031992;28;20083;-69
2023/06/28 00:57:04;;;;;;;10.05;4.32;;;15.40;99.90;;;;;;5050513;28;21878;-69
2023/06/28 00:59:30;;;;;;;10.48;4.00;;;15.40;99.90;;;;;;5049755;28;20052;-69
2023/06/28 01:01:56;;;;;;;10.80;3.80;;;15.40;99.90;;;;;;5051709;28;20057;-68
2023/06/28 01:04:22;;;;;;;7.75;3.80;;;15.40;99.90;;;;;;5050885;28;20053;-69
2023/06/28 01:06:54;;;;;;;8.98;3.88;;;15.40;99.90;;;;;;5046586;28;20102;-69
2023/06/28 01:09:21;;;;;;;6.95;3.85;;;15.30;99.90;;;;;;5051091;28;20790;-70
2023/06/28 01:11:49;;;;;;;8.10;4.28;;;15.30;99.90;;;;;;5057056;28;20052;-69
2023/06/28 01:14:15;;;;;;;9.13;4.57;;;15.30;99.90;;;;;;5049269;28;20044;-73
2023/06/28 01:16:41;;;;;;;8.20;4.07;;;15.20;99.90;;;;;;5024688;28;20135;-69
2023/06/28 01:19:13;;;;;;;9.63;4.85;;;15.20;99.90;;;;;;5046785;28;20124;-69
2023/06/28 01:21:42;;;;;;;7.53;4.45;;;15.20;99.90;;;;;;5049163;28;20049;-69
2023/06/28 01:24:11;;;;;;;7.00;4.30;;;15.10;99.90;;;;;;5048861;28;20102;-70
2023/06/28 01:26:38;;;;;;;8.13;4.57;;;15.10;99.90;;;;;;5050569;28;20541;-69
2023/06/28 01:29:05;;;;;;;8.90;4.35;;;15.10;99.90;;;;;;5052437;28;20127;-71
2023/06/28 01:31:31;;;;;;;7.93;4.22;;;15.10;99.90;;;;;;5039550;28;20048;-70
2023/06/28 01:33:57;;;;;;;8.15;4.40;;;15.00;99.90;;;;;;5049180;28;20706;-69
2023/06/28 01:36:23;;;;;;;7.43;4.43;;;15.00;99.90;;;;;;5050194;28;20076;-69
2023/06/28 01:38:50;;;;;;;8.15;4.47;;;15.00;99.90;;;;;;5039700;28;20186;-71
2023/06/28 01:41:16;;;;;;;8.40;4.75;;;15.00;99.90;;;;;;5049930;28;21228;-69
2023/06/28 01:43:42;;;;;;;9.93;5.00;;;15.00;99.90;;;;;;5047844;28;20036;-71
2023/06/28 01:46:08;;;;;;;9.00;4.90;;;15.00;99.90;;;;;;5046593;28;20048;-69
2023/06/28 01:48:34;;;;;;;11.52;4.72;;;15.00;99.90;;;;;;5034120;28;20067;-69
2023/06/28 01:51:00;;;;;;;7.65;4.40;;;15.00;99.90;;;;;;5050151;28;20056;-69
2023/06/28 01:53:26;;;;;;;8.60;4.60;;;15.00;99.90;;;;;;5049683;28;20078;-70
2023/06/28 01:55:52;;;;;;;12.38;4.97;;;15.00;99.90;;;;;;5054917;28;20049;-70
2023/06/28 01:58:17;;;;;;;9.13;5.00;;;15.00;99.90;;;;;;5036512;28;20151;-70
2023/06/28 02:00:43;;;;;;;9.93;4.63;;;15.00;99.90;;;;;;5052470;28;20127;-69
2023/06/28 02:03:09;;;;;;;9.40;5.30;;;15.00;99.90;;;;;;5036669;28;20136;-71
2023/06/28 02:05:35;;;;;;;8.95;5.35;;;15.00;99.90;;;;;;5055704;28;20161;-69
2023/06/28 02:08:02;;;;;;;9.20;4.78;;;15.00;99.90;;;;;;5033006;28;20049;-69
2023/06/28 02:10:28;;;;;;;10.45;5.70;;;14.90;99.90;;;;;;5048983;28;20048;-69
2023/06/28 02:12:53;;;;;;;10.40;5.85;;;14.90;99.90;;;;;;5051502;28;20064;-69
2023/06/28 02:15:19;;;;;;;10.43;5.68;;;14.90;99.90;;;;;;5040939;28;20051;-71
2023/06/28 02:17:45;;;;;;;10.85;6.68;;;14.90;99.90;;;;;;5029707;28;20098;-69
2023/06/28 02:20:12;;;;;;;9.25;6.03;;;14.90;99.90;;;;;;5036897;28;20466;-69
2023/06/28 02:22:39;;;;;;;11.90;6.50;;;14.90;99.90;;;;;;5043899;28;20068;-69
2023/06/28 02:25:05;;;;;;;12.57;6.30;;;14.90;99.90;;;;;;5048740;28;20151;-69
2023/06/28 02:27:31;;;;;;;9.73;5.93;;;14.90;99.90;;;;;;5048965;28;20040;-70
2023/06/28 02:29:57;;;;;;;9.73;6.30;;;14.90;99.90;;;;;;5045415;28;20063;-69
2023/06/28 02:32:24;;;;;;;10.68;6.72;;;14.90;99.90;;;;;;5047075;28;20111;-70
2023/06/28 02:34:49;;;;;;;10.82;6.38;;;14.90;99.90;;;;;;5050549;28;20099;-68
2023/06/28 02:37:15;;;;;;;10.45;6.32;;;14.90;99.90;;;;;;5054014;28;20052;-71
2023/06/28 02:39:41;;;;;;;11.52;6.50;;;14.90;99.90;;;;;;5050117;28;20551;-70
2023/06/28 02:42:07;;;;;;;10.93;6.63;;;14.90;99.90;;;;;;5036078;28;20071;-69
2023/06/28 02:44:35;;;;;;;9.75;6.35;;;14.90;99.90;;;;;;5053495;28;20037;-69
2023/06/28 02:47:01;;;;;;;9.30;6.72;;;14.90;99.90;;;;;;5057869;28;20138;-70
2023/06/28 02:49:26;;;;;;;11.27;6.78;;;14.90;99.90;;;;;;5045959;28;20497;-70
2023/06/28 02:51:52;;;;;;;12.82;7.28;;;14.90;99.90;;;;;;5031071;28;20122;-70
2023/06/28 02:54:19;;;;;;;13.40;7.45;;;14.90;99.90;;;;;;5042621;28;20078;-69
2023/06/28 02:56:44;;;;;;;14.13;7.47;;;15.00;99.90;;;;;;5035856;28;20099;-70
2023/06/28 02:59:10;;;;;;;11.45;7.55;;;15.00;99.90;;;;;;5055350;28;20797;-69
2023/06/28 03:01:35;;;;;;;10.93;7.55;;;15.00;99.90;;;;;;5022758;28;20040;-73
2023/06/28 03:04:02;;;;;;;10.55;7.90;;;15.00;99.90;;;;;;5029020;28;20643;-70
2023/06/28 03:06:27;;;;;;;11.23;7.95;;;15.00;99.90;;;;;;5030381;28;20094;-69
2023/06/28 03:08:53;;;;;;;11.27;7.90;;;15.10;99.90;;;;;;5035297;28;20115;-70
2023/06/28 03:11:19;;;;;;;12.48;7.75;;;15.10;99.90;;;;;;5033627;28;20643;-70
2023/06/28 03:13:44;;;;;;;11.77;8.02;;;15.10;99.90;;;;;;5050744;28;20049;-69
2023/06/28 03:16:10;;;;;;;12.25;8.13;;;15.10;99.90;;;;;;5053470;28;20051;-69
2023/06/28 03:18:36;;;;;;;14.30;8.32;;;15.10;99.90;;;;;;5050145;28;20051;-70
2023/06/28 03:21:02;;;;;;;11.80;7.75;;;15.10;99.90;;;;;;5050217;28;20043;-70
2023/06/28 03:23:27;;;;;;;12.15;8.35;;;15.10;99.90;;;;;;5049116;28;20400;-69
2023/06/28 03:25:53;;;;;;;13.27;8.50;;;15.10;99.90;;;;;;5052641;28;20123;-69
2023/06/28 03:28:19;;;;;;;12.70;8.10;;;15.20;99.90;;;;;;5054348;28;20079;-69
2023/06/28 03:30:45;;;;;;;12.70;8.07;;;15.20;99.90;;;;;;5052558;28;20106;-69
2023/06/28 03:33:10;;;;;;;14.68;7.63;;;15.20;99.90;;;;;;5049955;28;20469;-71
2023/06/28 03:35:36;;;;;;;11.30;7.75;;;15.20;99.90;;;;;;5052291;28;20487;-69
2023/06/28 03:38:02;;;;;;;10.40;8.00;;;15.20;99.90;;;;;;5050169;28;20074;-69
2023/06/28 03:40:30;;;;;;;10.88;8.10;;;15.30;99.90;;;;;;5048983;28;20088;-70
2023/06/28 03:42:56;;;;;;;9.65;7.53;;;15.30;99.90;;;;;;5050217;28;20110;-71
2023/06/28 03:45:22;;;;;;;13.57;8.38;;;15.30;99.90;;;;;;5030097;28;20140;-69
2023/06/28 03:47:48;;;;;;;11.13;7.78;;;15.30;99.90;;;;;;5050763;28;20097;-69
2023/06/28 03:50:14;;;;;;;12.50;7.70;;;15.30;99.90;;;;;;5034676;28;20056;-71
2023/06/28 03:52:40;;;;;;;11.85;7.72;;;15.30;99.90;;;;;;5052440;28;20033;-69
2023/06/28 03:55:06;;;;;;;12.57;8.10;;;15.30;99.90;;;;;;5049442;28;20048;-69
2023/06/28 03:57:32;;;;;;;12.15;7.72;;;15.30;99.90;;;;;;5035650;28;20086;-69
2023/06/28 03:59:58;;;;;;;15.25;8.00;;;15.30;99.90;;;;;;5050336;28;20117;-69
2023/06/28 04:02:24;;;;;;;11.90;7.60;;;15.30;99.90;;;;;;5049919;28;20549;-69
2023/06/28 04:04:49;;;;;;;12.05;7.30;;;15.30;99.90;;;;;;5025448;28;20751;-69
2023/06/28 04:07:15;;;;;;;12.73;7.88;;;15.40;99.90;;;;;;5049436;28;20065;-67
2023/06/28 04:09:43;;;;;;;12.98;8.15;;;15.30;99.90;;;;;;5053447;28;20049;-70
2023/06/28 04:12:09;;;;;;;9.60;6.90;;;15.40;99.90;;;;;;5052724;28;21364;-70
2023/06/28 04:14:35;;;;;;;10.45;7.15;;;15.40;99.90;;;;;;5050739;28;20048;-70
2023/06/28 04:17:00;;;;;;;10.30;7.22;;;15.40;99.90;;;;;;5048591;28;20522;-71
2023/06/28 04:19:26;;;;;;;10.25;7.45;;;15.40;99.90;;;;;;5032834;28;20081;-70
2023/06/28 04:21:51;;;;;;;12.23;7.75;;;15.40;99.90;;;;;;5047876;28;20040;-70
2023/06/28 04:24:17;;;;;;;13.48;7.60;;;15.40;99.90;;;;;;5022829;28;20044;-70
2023/06/28 04:26:43;;;;;;;10.63;7.57;;;15.50;99.90;;;;;;5032938;28;20074;-68
2023/06/28 04:29:08;;;;;;;10.75;7.15;;;15.40;99.90;;;;;;5037042;28;20666;-70
2023/06/28 04:31:34;;;;;;;11.10;7.13;;;15.50;99.90;;;;;;5053830;28;20127;-71
2023/06/28 04:34:00;;;;;;;11.40;7.20;;;15.50;99.90;;;;;;5051078;28;20032;-70
2023/06/28 04:36:26;;;;;;;11.82;7.28;;;15.60;99.90;;;;;;5052389;28;20098;-70
2023/06/28 04:38:54;;;;;;;10.30;6.80;;;15.60;99.90;;;;;;5032968;28;20094;-71
2023/06/28 04:41:22;;;;;;;10.57;6.97;;;15.60;99.90;;;;;;5049571;28;20491;-70
2023/06/28 04:43:49;;;;;;;11.32;7.03;;;15.60;99.90;;;;;;5049479;28;21824;-69
2023/06/28 04:46:14;;;;;;;9.45;6.93;;;15.60;99.90;;;;;;5050200;28;20056;-70
2023/06/28 04:48:42;;;;;;;8.93;6.47;;;15.60;99.90;;;;;;5045316;28;20446;-70
2023/06/28 04:51:08;;;;;;;10.40;6.80;;;15.70;99.90;;;;;;5036015;28;20411;-70
2023/06/28 04:53:34;;;;;;;10.40;6.68;;;15.70;99.90;;;;;;5052772;28;20068;-70
2023/06/28 04:56:00;;;;;;;11.57;7.50;;;15.70;99.90;;;;;;5050138;28;20076;-70
2023/06/28 04:58:26;;;;;;;10.90;6.97;;;15.70;99.90;;;;;;5051589;28;20067;-71
2023/06/28 05:00:55;;;;;;;11.52;7.00;;;15.70;99.90;;;;;;5030795;28;20063;-69
2023/06/28 05:03:26;;;;;;;10.13;6.63;;;15.80;99.90;;;;;;5030506;28;20044;-70
2023/06/28 05:05:54;;;;;;;10.27;6.50;;;15.80;99.90;;;;;;5051744;28;20052;-70
2023/06/28 05:08:20;;;;;;;10.23;6.78;;;15.80;99.90;;;;;;5049936;28;20521;-72
2023/06/28 05:10:46;;;;;;;10.85;7.00;;;15.90;99.90;;;;;;5050865;28;20055;-71
2023/06/28 05:13:11;;;;;;;10.80;6.97;;;15.90;99.90;;;;;;5032073;28;20048;-71
2023/06/28 05:15:37;;;;;;;10.85;7.18;;;15.90;99.90;;;;;;5024156;28;20049;-70
2023/06/28 05:18:03;;;;;;;9.57;6.78;;;15.90;99.90;;;;;;5052331;28;20055;-69
2023/06/28 05:20:29;;;;;;;10.53;6.60;;;16.00;99.90;;;;;;5046431;28;20114;-69
2023/06/28 05:23:12;;;;;;;11.32;7.25;;;16.00;99.90;;;;;;5048628;28;20483;-71
2023/06/28 05:25:39;;;;;;;12.00;7.15;;;16.00;99.90;;;;;;5052074;28;20499;-71
2023/06/28 05:28:06;;;;;;;14.77;6.63;;;16.10;99.90;;;;;;5037608;28;20074;-70
2023/06/28 05:30:32;;;;;;;11.45;7.15;;;16.10;99.90;;;;;;5047344;28;20048;-71
2023/06/28 05:33:01;;;;;;;10.43;6.53;;;16.10;99.90;;;;;;5044064;28;20064;-69
2023/06/28 05:35:28;;;;;;;12.13;7.05;;;16.20;99.90;;;;;;5035457;28;20048;-69
2023/06/28 05:37:53;;;;;;;10.45;6.65;;;16.30;99.90;;;;;;5051530;28;20120;-69
2023/06/28 05:40:19;;;;;;;11.32;6.85;;;16.30;99.90;;;;;;5052776;28;20447;-69
2023/06/28 05:42:45;;;;;;;10.95;6.60;;;16.40;99.90;;;;;;5051052;28;21792;-69
2023/06/28 05:45:11;;;;;;;9.30;6.05;;;16.40;99.90;;;;;;5029589;28;20048;-68
2023/06/28 05:47:36;;;;;;;11.57;6.85;;;16.50;99.90;;;;;;5045914;28;20101;-68
2023/06/28 05:50:03;;;;;;;11.80;6.88;;;16.50;99.90;;;;;;5042536;28;20492;-70
2023/06/28 05:52:28;;;;;;;9.73;5.67;;;16.50;99.90;;;;;;5041531;28;20044;-67
2023/06/28 05:54:54;;;;;;;7.90;5.70;;;16.60;99.90;;;;;;5044063;28;20045;-68
2023/06/28 05:57:20;;;;;;;9.25;5.00;;;16.60;99.90;;;;;;5042792;28;20102;-68
2023/06/28 05:59:45;;;;;;;8.38;4.85;;;16.60;99.90;;;;;;5046005;28;20422;-68
2023/06/28 06:02:11;;;;;;;8.20;4.53;;;16.70;99.90;;;;;;5038699;28;20053;-69
2023/06/28 06:04:37;;;;;;;9.40;4.65;;;16.70;99.90;;;;;;5043080;28;20044;-69
2023/06/28 06:07:02;;;;;;;7.40;3.78;;;16.70;99.90;;;;;;5041527;28;20041;-68
2023/06/28 06:09:30;;;;;;;8.27;4.22;;;16.80;99.90;;;;;;5047582;28;20960;-68
2023/06/28 06:11:56;;;;;;;6.55;3.55;;;16.80;99.90;;;;;;5044016;28;20602;-67
2023/06/28 06:14:21;;;;;;;9.85;4.15;;;16.80;99.90;;;;;;5049746;28;20055;-69
2023/06/28 06:16:47;;;;;;;7.75;4.50;;;16.90;99.90;;;;;;5049235;28;21855;-68
2023/06/28 06:19:12;;;;;;;6.05;3.85;;;16.90;99.90;;;;;;5040737;28;20060;-69
2023/06/28 06:21:38;;;;;;;5.70;3.40;;;16.90;99.90;;;;;;5054992;28;20036;-68
2023/06/28 06:24:07;;;;;;;8.30;4.30;;;16.90;99.90;;;;;;5051226;28;20498;-68
2023/06/28 06:26:35;;;;;;;7.07;3.60;;;17.00;99.90;;;;;;5032588;28;20052;-68
2023/06/28 06:29:02;;;;;;;8.38;3.60;;;17.00;99.90;;;;;;5049095;28;20044;-69
2023/06/28 06:31:28;;;;;;;6.82;3.40;;;17.10;99.90;;;;;;5040517;28;20049;-69
2023/06/28 06:34:00;;;;;;;7.43;3.55;;;17.10;99.90;;;;;;5048629;28;20052;-68
2023/06/28 06:36:26;;;;;;;8.32;3.38;;;17.20;99.90;;;;;;5039255;28;20037;-69
2023/06/28 06:38:52;;;;;;;6.15;3.28;;;17.10;99.90;;;;;;5044638;28;20048;-69
2023/06/28 06:41:17;;;;;;;7.53;3.60;;;17.20;99.90;;;;;;5045685;28;20049;-69
2023/06/28 06:43:44;;;;;;;6.03;3.97;;;17.30;99.90;;;;;;5029640;28;20040;-68
2023/06/28 06:46:10;;;;;;;5.07;3.60;;;17.30;99.90;;;;;;5050829;28;20499;-68
2023/06/28 06:48:37;;;;;;;7.28;3.80;;;17.40;99.90;;;;;;5045021;28;20318;-69
2023/06/28 06:51:04;;;;;;;7.25;3.78;;;17.40;99.90;;;;;;5041268;28;20052;-69
2023/06/28 06:53:30;;;;;;;8.25;4.07;;;17.40;99.90;;;;;;5038816;28;20045;-69
2023/06/28 06:55:55;;;;;;;8.07;3.80;;;17.50;99.90;;;;;;5030036;28;20051;-68
2023/06/28 06:58:22;;;;;;;8.90;4.05;;;17.50;99.90;;;;;;5028726;28;20084;-69
2023/06/28 07:00:48;;;;;;;7.45;4.57;;;17.50;99.90;;;;;;5040518;28;20139;-70
2023/06/28 07:03:14;;;;;;;7.25;4.20;;;17.50;99.90;;;;;;5030186;28;20170;-70
2023/06/28 07:05:40;;;;;;;8.63;4.72;;;17.50;99.90;;;;;;5042791;28;20622;-69
2023/06/28 07:08:05;;;;;;;10.25;4.53;;;17.50;99.90;;;;;;5046335;28;20053;-70
2023/06/28 07:10:31;;;;;;;9.50;4.53;;;17.50;99.90;;;;;;5050096;28;20044;-68
2023/06/28 07:12:57;;;;;;;9.07;4.90;;;17.50;99.90;;;;;;5050930;28;20044;-71
2023/06/28 07:15:22;;;;;;;8.98;4.95;;;17.50;99.90;;;;;;5041907;28;20160;-71
2023/06/28 07:17:49;;;;;;;7.63;4.60;;;17.40;99.90;;;;;;5050793;28;20056;-72
2023/06/28 07:20:15;;;;;;;8.83;4.90;;;17.50;99.90;;;;;;5050040;28;20127;-71
2023/06/28 07:22:40;;;;;;;8.90;5.15;;;17.40;99.90;;;;;;5048126;28;20052;-71
2023/06/28 07:25:06;;;;;;;9.05;5.63;;;17.40;99.90;;;;;;5045714;28;20052;-71
2023/06/28 07:27:32;;;;;;;8.02;5.38;;;17.40;99.90;;;;;;5051092;28;20112;-69
2023/06/28 07:29:57;;;;;;;9.70;6.05;;;17.40;99.90;;;;;;5025243;28;20056;-70
2023/06/28 07:32:26;;;;;;;10.90;5.75;;;17.40;99.90;;;;;;5047282;28;20048;-68
2023/06/28 07:34:53;;;;;;;9.02;5.68;;;17.40;99.90;;;;;;5056128;28;20043;-70
2023/06/28 07:37:18;;;;;;;10.02;6.63;;;17.40;99.90;;;;;;5051855;28;20055;-68
2023/06/28 07:39:45;;;;;;;12.13;6.78;;;17.50;99.90;;;;;;5046776;28;20284;-69
2023/06/28 07:42:12;;;;;;;10.27;5.85;;;17.40;99.90;;;;;;5050402;28;20044;-69
2023/06/28 07:44:38;;;;;;;11.02;6.65;;;17.50;99.90;;;;;;5054572;28;20053;-69
2023/06/28 07:47:04;;;;;;;11.73;6.68;;;17.40;99.90;;;;;;5041340;28;20055;-70
2023/06/28 07:49:30;;;;;;;9.85;5.93;;;17.40;99.90;;;;;;5054318;28;20040;-69
2023/06/28 07:51:55;;;;;;;13.02;6.53;;;17.40;99.90;;;;;;5031087;28;20055;-76
2023/06/28 07:54:23;;;;;;;9.32;5.55;;;17.50;99.90;;;;;;5031607;28;20044;-72
2023/06/28 07:56:49;;;;;;;11.27;6.13;;;17.50;99.90;;;;;;5041874;28;20470;-71
2023/06/28 07:59:15;;;;;;;11.65;6.35;;;17.50;99.90;;;;;;5038940;28;20053;-72
2023/06/28 08:01:41;;;;;;;14.50;6.53;;;17.60;99.90;;;;;;5035797;28;20048;-72
2023/06/28 08:04:07;;;;;;;11.15;7.00;;;17.50;99.90;;;;;;5016642;28;20122;-73
2023/06/28 08:06:32;;;;;;;11.43;6.18;;;17.50;99.90;;;;;;5034218;28;20123;-73
2023/06/28 08:08:58;;;;;;;11.18;5.93;;;17.50;99.90;;;;;;5032956;28;20042;-72
2023/06/28 08:11:24;;;;;;;8.73;6.38;;;17.50;99.90;;;;;;5030699;28;20082;-72
2023/06/28 08:13:50;;;;;;;12.73;6.53;;;17.60;99.90;;;;;;5025568;28;20521;-71
2023/06/28 08:16:16;;;;;;;9.65;6.47;;;17.60;99.90;;;;;;5028376;28;20488;-71
2023/06/28 08:18:42;;;;;;;11.40;6.15;;;17.70;99.90;;;;;;5031781;28;20167;-72
2023/06/28 08:21:07;;;;;;;11.85;6.35;;;17.70;99.90;;;;;;5033920;28;20476;-71
2023/06/28 08:23:33;;;;;;;12.73;6.50;;;17.80;99.90;;;;;;5028256;28;20044;-72
2023/06/28 08:25:59;;;;;;;10.57;6.53;;;17.80;99.90;;;;;;5013396;28;20068;-72
2023/06/28 08:28:25;;;;;;;12.55;6.28;;;17.90;99.90;;;;;;5033874;28;20135;-71
2023/06/28 08:30:50;;;;;;;12.10;6.72;;;18.00;99.90;;;;;;5020815;28;20124;-74
2023/06/28 08:33:16;;;;;;;10.63;6.70;;;18.00;99.90;;;;;;5034204;28;20049;-73
2023/06/28 08:35:42;;;;;;;10.80;6.38;;;18.10;99.90;;;;;;5030164;28;20041;-72
2023/06/28 08:38:07;;;;;;;12.60;6.75;;;18.10;99.90;;;;;;5038572;28;20884;-74
2023/06/28 08:40:33;;;;;;;11.55;7.10;;;18.10;99.90;;;;;;5009042;28;20041;-74
2023/06/28 08:43:02;;;;;;;11.63;7.10;;;18.00;99.90;;;;;;5033178;28;20049;-75
2023/06/28 08:45:33;;;;;;;12.55;6.78;;;18.00;99.90;;;;;;5038384;28;20500;-74
2023/06/28 08:48:00;;;;;;;13.45;7.13;;;18.00;99.90;;;;;;5035033;28;20049;-73
2023/06/28 08:50:26;;;;;;;13.30;7.20;;;18.00;99.90;;;;;;5027115;28;20041;-71
2023/06/28 08:52:52;;;;;;;12.32;7.78;;;18.10;99.90;;;;;;5031984;28;20049;-73
2023/06/28 08:55:21;;;;;;;13.43;7.40;;;18.10;99.90;;;;;;5029654;28;21118;-73
2023/06/28 08:57:47;;;;;;;12.02;7.03;;;18.20;99.90;;;;;;5026720;28;20060;-71
2023/06/28 09:00:14;;;;;;;10.38;7.20;;;18.20;99.90;;;;;;5051749;28;20044;-74
2023/06/28 09:02:43;;;;;;;12.85;7.60;;;18.20;99.90;;;;;;5056863;28;20591;-74
2023/06/28 09:05:10;;;;;;;11.35;7.57;;;18.30;99.90;;;;;;5039627;28;20040;-74
2023/06/28 09:07:40;;;;;;;12.02;7.40;;;18.30;99.90;;;;;;5030426;28;20073;-74
2023/06/28 09:10:10;;;;;;;10.90;6.55;;;18.30;99.90;;;;;;5046436;28;20829;-74
2023/06/28 09:12:37;;;;;;;11.15;7.47;;;18.40;99.90;;;;;;5046759;28;20084;-73
2023/06/28 09:15:03;;;;;;;12.93;7.95;;;18.40;99.90;;;;;;5035802;28;20186;-75
2023/06/28 09:17:29;;;;;;;11.73;7.25;;;18.50;99.90;;;;;;5039019;28;20179;-75
2023/06/28 09:20:25;;;;;;;11.30;7.15;;;18.50;99.90;;;;;;5044643;28;20067;-75
2023/06/28 09:22:56;;;;;;;13.13;7.55;;;18.60;99.90;;;;;;5026845;28;20396;-73
2023/06/28 09:25:23;;;;;;;10.48;6.93;;;18.60;99.90;;;;;;5062466;28;20052;-74
2023/06/28 09:27:49;;;;;;;11.50;8.02;;;18.70;99.90;;;;;;5034357;28;20060;-75
2023/06/28 09:30:21;;;;;;;13.88;8.50;;;18.80;99.90;;;;;;5043363;28;20121;-73
2023/06/28 09:32:50;;;;;;;15.02;8.23;;;18.90;99.90;;;;;;5050623;28;20085;-75
2023/06/28 09:35:20;;;;;;;11.98;7.90;;;18.90;99.90;;;;;;5040313;28;20463;-75
2023/06/28 09:37:53;;;;;;;12.65;7.90;;;18.90;99.90;;;;;;5032945;28;20060;-75
2023/06/28 09:40:19;;;;;;;10.95;7.43;;;18.90;99.90;;;;;;5030415;28;20045;-74
2023/06/28 09:42:49;;;;;;;10.20;7.38;;;18.90;99.90;;;;;;5030324;28;20051;-73
2023/06/28 09:45:25;;;;;;;12.45;7.25;;;19.00;99.90;;;;;;5028174;28;20044;-74
2023/06/28 09:48:02;;;;;;;13.48;7.78;;;19.00;99.90;;;;;;5049462;28;20123;-73
2023/06/28 09:50:39;;;;;;;10.98;7.60;;;19.10;99.90;;;;;;5029975;28;20048;-71
2023/06/28 09:53:11;;;;;;;12.15;8.23;;;19.10;99.90;;;;;;5047117;28;20044;-72
2023/06/28 09:55:44;;;;;;;12.45;8.02;;;19.10;99.90;;;;;;5026836;28;20395;-72
2023/06/28 09:58:11;;;;;;;13.00;8.13;;;19.10;99.90;;;;;;5045674;28;20076;-72
2023/06/28 10:00:41;;;;;;;;;;;19.10;99.90;;;;;;5050383;28;20063;-72
2023/06/28 10:03:09;;;;;;;12.63;8.00;;;19.10;99.90;;;;;;5030715;28;19924;-72
2023/06/28 10:05:37;;;;;;;11.52;8.43;;;19.10;99.90;;;;;;5060756;28;20100;-73
2023/06/28 10:08:07;;;;;;;13.05;8.70;;;19.00;99.90;;;;;;5043042;28;20145;-74
2023/06/28 10:10:34;;;;;;;14.52;9.13;;;19.00;99.90;;;;;;5057435;28;20385;-76
2023/06/28 10:13:06;;;;;;;14.68;9.40;;;19.00;99.90;;;;;;5035170;28;20453;-74
2023/06/28 10:15:39;;;;;;;14.77;10.00;;;19.00;99.90;;;;;;5054911;28;20048;-72
2023/06/28 10:18:05;;;;;;;12.23;8.90;;;19.00;99.90;;;;;;5048139;28;20513;-71
2023/06/28 10:20:31;;;;;;;15.05;9.82;;;18.90;99.90;;;;;;5051227;28;20076;-74
2023/06/28 10:22:58;;;;;;;13.23;10.20;;;18.90;99.90;;;;;;5054698;28;20355;-71
2023/06/28 10:25:26;;;;;;;11.75;9.45;;;18.80;99.90;;;;;;5039132;28;20045;-73
2023/06/28 10:27:53;;;;;;;15.30;11.10;;;18.80;99.90;;;;;;5046250;28;20170;-73
2023/06/28 10:30:21;;;;;;;13.73;10.30;;;18.90;99.90;;;;;;5030300;28;20500;-78
2023/06/28 10:32:47;;;;;;;14.48;11.35;;;18.90;99.90;;;;;;5032223;28;20048;-74
2023/06/28 10:35:13;;;;;;;16.42;12.43;;;18.90;99.90;;;;;;5029460;28;20124;-74
2023/06/28 10:37:39;;;;;;;14.13;11.60;;;18.90;99.90;;;;;;5048355;28;20092;-76
2023/06/28 10:40:08;;;;;;;18.08;12.50;;;18.90;99.90;;;;;;5051607;28;20178;-73
2023/06/28 10:42:41;;;;;;;15.43;11.93;;;18.90;99.90;;;;;;5038061;28;20052;-74
2023/06/28 10:45:10;;;;;;;17.88;12.80;;;18.90;99.90;;;;;;5036458;28;20052;-75
2023/06/28 10:47:49;;;;;;;17.58;12.73;;;18.90;99.90;;;;;;5054458;28;20055;-75
2023/06/28 10:50:20;;;;;;;17.15;12.93;;;19.00;99.90;;;;;;5038639;28;20060;-74
2023/06/28 10:52:48;;;;;;;22.23;14.35;;;19.00;99.90;;;;;;5053538;28;20169;-75
2023/06/28 10:55:47;;;;;;;19.13;12.40;;;19.00;99.90;;;;;;5052217;28;20540;-72
2023/06/28 10:58:12;;;;;;;16.88;13.63;;;19.00;99.90;;;;;;5005331;28;20075;-73
2023/06/28 11:00:49;;;;;;;18.95;13.23;;;19.00;99.90;;;;;;5052208;28;20139;-74
2023/06/28 11:03:15;;;;;;;21.13;15.07;;;19.10;99.90;;;;;;5053638;28;20048;-73
2023/06/28 11:05:54;;;;;;;16.55;13.20;;;19.10;99.90;;;;;;5046689;28;20055;-74
2023/06/28 11:08:21;;;;;;;19.15;13.18;;;19.10;99.90;;;;;;5019966;28;20049;-74
2023/06/28 11:10:48;;;;;;;16.00;13.65;;;19.10;99.90;;;;;;5048221;28;20052;-74
2023/06/28 11:13:39;;;;;;;19.00;13.02;;;19.10;99.90;;;;;;5037889;28;20053;-73
2023/06/28 11:16:09;;;;;;;16.38;12.20;;;19.10;99.90;;;;;;5025429;28;20093;-73
2023/06/28 11:18:36;;;;;;;19.40;14.60;;;19.10;99.90;;;;;;5037500;28;20106;-73
2023/06/28 11:21:03;;;;;;;18.30;13.90;;;19.10;99.90;;;;;;5048572;28;20059;-74
2023/06/28 11:23:29;;;;;;;18.13;13.60;;;19.10;99.90;;;;;;5047716;28;20048;-73
2023/06/28 11:26:02;;;;;;;17.48;13.60;;;19.10;99.90;;;;;;5044774;28;20041;-73
2023/06/28 11:28:30;;;;;;;18.88;14.02;;;19.10;99.90;;;;;;5029427;28;20406;-74
2023/06/28 11:31:10;;;;;;;16.50;12.98;;;19.00;99.90;;;;;;5037337;28;20052;-73
2023/06/28 11:33:36;;;;;;;17.77;13.27;;;19.00;99.90;;;;;;5045828;28;20041;-72
2023/06/28 11:36:03;;;;;;;15.23;12.67;;;19.00;99.90;;;;;;5028085;28;20060;-73
2023/06/28 11:38:28;;;;;;;14.35;12.30;;;19.00;99.90;;;;;;5057910;28;20114;-74
2023/06/28 11:40:55;;;;;;;14.38;12.27;;;19.00;99.90;;;;;;5035332;28;20190;-74
2023/06/28 11:43:21;;;;;;;15.97;12.70;;;19.00;99.90;;;;;;5048873;28;20052;-73
2023/06/28 11:45:49;;;;;;;16.33;13.18;;;19.00;99.90;;;;;;5052337;28;20045;-74
2023/06/28 11:48:15;;;;;;;14.45;12.95;;;19.00;99.90;;;;;;5053678;28;20041;-73
2023/06/28 11:50:40;;;;;;;15.57;13.23;;;19.10;99.90;;;;;;5051974;28;20040;-74
2023/06/28 11:53:06;;;;;;;16.90;14.07;;;19.10;99.90;;;;;;5033407;28;20123;-73
2023/06/28 11:55:32;;;;;;;15.98;13.60;;;19.10;99.90;;;;;;5032218;28;20075;-72
2023/06/28 11:57:57;;;;;;;20.45;14.57;;;19.10;99.90;;;;;;5031126;28;20079;-72
2023/06/28 12:00:37;;;;;;;18.27;13.48;;;19.20;99.90;;;;;;5031941;28;20436;-73
2023/06/28 12:03:03;;;;;;;17.10;13.45;;;19.10;99.90;;;;;;5044079;28;20064;-73
2023/06/28 12:05:29;;;;;;;15.48;13.30;;;19.20;99.90;;;;;;5042437;28;20044;-74
2023/06/28 12:07:57;;;;;;;14.65;12.60;;;19.20;99.90;;;;;;5045488;28;20550;-74
2023/06/28 12:10:23;;;;;;;14.88;13.23;;;19.30;99.90;;;;;;5042574;28;20714;-73
2023/06/28 12:12:49;;;;;;;17.15;13.35;;;19.30;99.90;;;;;;5042661;28;21265;-73
2023/06/28 12:15:21;;;;;;;14.32;12.10;;;19.30;99.90;;;;;;5045326;28;20041;-72
2023/06/28 12:17:47;;;;;;;14.13;12.40;;;19.30;99.90;;;;;;5042658;28;20052;-74
2023/06/28 12:20:13;;;;;;;14.40;12.63;;;19.30;99.90;;;;;;5044506;28;20037;-73
2023/06/28 12:22:42;;;;;;;13.95;12.55;;;19.30;99.90;;;;;;5036336;28;20075;-72
2023/06/28 12:25:08;;;;;;;14.07;12.20;;;19.40;99.90;;;;;;5050386;28;20036;-72
2023/06/28 12:27:34;;;;;;;13.25;11.88;;;19.40;99.90;;;;;;5035252;28;20455;-72
2023/06/28 12:30:10;;;;;;;15.75;12.07;;;19.50;99.90;;;;;;5043225;28;20056;-73
2023/06/28 12:32:44;;;;;;;13.60;12.18;;;19.50;99.90;;;;;;5028928;28;20056;-74
2023/06/28 12:35:41;;;;;;;14.38;12.02;;;19.50;99.90;;;;;;5049702;28;20454;-75
2023/06/28 12:38:07;;;;;;;13.60;11.63;;;19.60;99.90;;;;;;5050678;28;20124;-74